Time;durP1;ratioP1;P1;durP2;ratioP2;P2;SDS_P1;SDS_P2;PMS_P1;PMS_P2;Temp;Humidity;BMP_temperature;BMP_pressure;BME280_temperature;BME280_humidity;BME280_pressure;Samples;Min_cycle;Max_cycle;Signal;HPM_P1;HPM_P2
2023/04/06 00:01:40;;;;;;;17.90;13.10;;;;;;;11.59;73.95;99789.18;107858;1254;73190;-79
2023/04/06 00:04:10;;;;;;;15.70;12.40;;;;;;;11.56;74.16;99790.39;107847;1254;61803;-80
2023/04/06 00:06:39;;;;;;;17.80;13.00;;;;;;;11.54;74.39;99788.20;107930;1254;61365;-80
2023/04/06 00:09:08;;;;;;;16.30;12.20;;;;;;;11.53;74.64;99782.94;108028;1254;75623;-80
2023/04/06 00:11:36;;;;;;;19.70;12.60;;;;;;;11.50;74.65;99782.79;100568;1258;10001399;-79
2023/04/06 00:14:17;;;;;;;18.30;12.40;;;;;;;11.50;74.99;99780.60;107925;1254;61157;-79
2023/04/06 00:16:45;;;;;;;16.10;12.40;;;;;;;11.49;75.13;99780.09;107978;1256;75591;-80
2023/04/06 00:19:14;;;;;;;16.50;12.80;;;;;;;11.46;75.33;99772.19;107899;1259;72363;-78
2023/04/06 00:21:45;;;;;;;18.00;12.60;;;;;;;11.47;75.54;99778.22;107895;1254;73983;-80
2023/04/06 00:24:13;;;;;;;16.20;12.80;;;;;;;11.46;75.76;99775.98;107924;1259;61650;-79
2023/04/06 00:26:42;;;;;;;16.80;12.60;;;;;;;11.44;75.90;99775.95;107796;1254;61163;-81
2023/04/06 00:29:11;;;;;;;18.30;13.80;;;;;;;11.41;75.99;99776.66;107925;1258;74767;-82
2023/04/06 00:31:40;;;;;;;19.20;13.10;;;;;;;11.41;76.22;99772.88;108030;1254;75084;-82
2023/04/06 00:34:10;;;;;;;15.90;12.60;;;;;;;11.39;76.43;99769.05;107989;1254;71253;-82
2023/04/06 00:36:39;;;;;;;16.20;12.30;;;;;;;11.39;76.47;99767.17;108206;1254;62258;-83
2023/04/06 00:39:07;;;;;;;16.90;12.70;;;;;;;11.39;76.61;99766.86;108253;1254;61140;-82
2023/04/06 00:41:36;;;;;;;19.20;14.00;;;;;;;11.36;76.67;99765.55;108014;1254;73724;-81
2023/04/06 00:44:05;;;;;;;18.20;13.60;;;;;;;11.37;76.81;99759.71;108011;1254;71459;-82
2023/04/06 00:46:36;;;;;;;16.40;12.30;;;;;;;11.38;76.93;99757.23;108094;1254;72318;-81
2023/04/06 00:49:06;;;;;;;16.50;13.20;;;;;;;11.36;77.03;99759.77;108100;1256;62203;-81
2023/04/06 00:51:36;;;;;;;16.70;12.80;;;;;;;11.33;77.21;99756.89;108183;1254;61131;-81
2023/04/06 00:54:13;;;;;;;19.60;13.10;;;;;;;11.33;77.31;99754.29;108147;1257;74240;-82
2023/04/06 00:56:46;;;;;;;17.90;12.70;;;;;;;11.31;77.45;99757.19;108210;1254;72511;-83
2023/04/06 00:59:14;;;;;;;15.80;12.40;;;;;;;11.29;77.66;99753.30;108011;1254;72901;-82
2023/04/06 01:01:43;;;;;;;19.50;13.80;;;;;;;11.31;77.68;99752.77;108091;1254;62019;-82
2023/04/06 01:04:27;;;;;;;17.70;13.60;;;;;;;11.33;77.83;99753.48;108356;1255;61110;-82
2023/04/06 01:06:56;;;;;;;16.60;13.10;;;;;;;11.32;77.89;99751.95;108131;1254;74760;-82
2023/04/06 01:09:31;;;;;;;16.20;12.70;;;;;;;11.29;78.09;99748.55;107847;1254;72836;-82
2023/04/06 01:12:03;;;;;;;16.50;12.50;;;;;;;11.31;78.25;99747.40;107968;1254;71745;-81
2023/04/06 01:14:32;;;;;;;18.00;13.50;;;;;;;11.31;78.27;99743.66;107846;1258;62223;-82
2023/04/06 01:17:01;;;;;;;18.60;13.70;;;;;;;11.32;78.48;99744.89;107851;1255;61200;-83
2023/04/06 01:19:32;;;;;;;18.00;13.00;;;;;;;11.31;78.59;99742.43;107874;1254;74880;-82
2023/04/06 01:22:01;;;;;;;18.50;13.30;;;;;;;11.31;78.80;99736.77;107950;1254;71016;-82
2023/04/06 01:24:30;;;;;;;19.50;13.40;;;;;;;11.31;78.97;99737.63;108084;1254;73805;-81
2023/04/06 01:27:19;;;;;;;17.80;12.80;;;;;;;11.30;79.17;99735.38;107857;1254;61109;-82
2023/04/06 01:29:58;;;;;;;16.50;12.60;;;;;;;11.30;79.23;99735.65;107962;1254;61221;-81
2023/04/06 01:32:53;;;;;;;18.20;13.70;;;;;;;11.28;79.39;99739.40;107915;1258;75408;-82
2023/04/06 01:35:31;;;;;;;16.40;12.70;;;;;;;11.29;79.37;99739.45;107820;1259;73348;-82
2023/04/06 01:38:10;;;;;;;18.10;13.90;;;;;;;11.27;79.49;99735.51;107880;1254;73182;-81
2023/04/06 01:40:39;;;;;;;17.60;13.60;;;;;;;11.27;79.46;99727.08;107790;1254;61195;-81
2023/04/06 01:43:07;;;;;;;17.00;12.80;;;;;;;11.24;79.56;99733.77;107848;1254;60798;-82
2023/04/06 01:45:44;;;;;;;16.20;12.50;;;;;;;11.25;79.61;99733.23;108043;1254;75987;-82
2023/04/06 01:48:18;;;;;;;19.20;13.80;;;;;;;11.26;79.56;99732.27;108041;1254;73278;-82
2023/04/06 01:50:49;;;;;;;17.80;12.90;;;;;;;11.31;79.49;99726.61;108061;1255;71938;-84
2023/04/06 01:53:26;;;;;;;18.00;13.60;;;;;;;11.30;79.58;99724.10;108292;1255;61154;-84
2023/04/06 01:56:07;;;;;;;17.50;13.10;;;;;;;11.33;79.36;99720.98;108083;1257;61290;-83
2023/04/06 01:58:45;;;;;;;17.90;13.50;;;;;;;11.29;79.42;99717.38;108193;1254;75840;-84
2023/04/06 02:01:17;;;;;;;17.30;12.90;;;;;;;11.31;79.42;99710.99;108100;1254;72600;-84
2023/04/06 02:03:54;;;;;;;17.60;13.30;;;;;;;11.32;79.41;99706.45;108318;1254;71808;-83
2023/04/06 02:06:28;;;;;;;17.50;13.00;;;;;;;11.31;79.36;99704.69;108221;1254;61947;-83
2023/04/06 02:08:57;;;;;;;18.40;13.80;;;;;;;11.32;79.37;99709.80;108248;1255;61332;-82
2023/04/06 02:11:28;;;;;;;20.20;13.40;;;;;;;11.32;79.40;99709.92;108160;1254;73591;-82
2023/04/06 02:14:06;;;;;;;18.40;14.10;;;;;;;11.34;79.33;99713.70;108123;1257;72029;-82
2023/04/06 02:16:43;;;;;;;18.90;13.20;;;;;;;11.34;79.30;99711.93;107877;1254;71134;-83
2023/04/06 02:19:12;;;;;;;16.90;12.60;;;;;;;11.34;79.18;99717.11;108151;1254;61321;-82
2023/04/06 02:21:56;;;;;;;17.50;12.80;;;;;;;11.35;79.14;99715.07;107944;1254;61157;-82
2023/04/06 02:24:26;;;;;;;15.90;12.00;;;;;;;11.35;79.04;99714.11;108401;1257;74654;-82
2023/04/06 02:26:55;;;;;;;18.60;13.60;;;;;;;11.36;78.99;99711.95;108402;1254;71567;-80
2023/04/06 02:29:25;;;;;;;20.30;13.60;;;;;;;11.37;78.84;99705.70;107974;1255;72384;-83
2023/04/06 02:31:55;;;;;;;16.40;12.80;;;;;;;11.37;78.84;99705.58;108003;1259;62234;-82
2023/04/06 02:34:24;;;;;;;17.80;13.90;;;;;;;11.39;78.75;99705.94;107951;1256;61209;-81
2023/04/06 02:36:52;;;;;;;17.10;12.70;;;;;;;11.39;78.55;99711.61;107967;1257;73927;-82
2023/04/06 02:39:21;;;;;;;19.10;13.70;;;;;;;11.39;78.49;99710.92;107938;1255;72042;-82
2023/04/06 02:41:51;;;;;;;17.20;13.20;;;;;;;11.39;78.44;99708.55;107971;1257;73928;-82
2023/04/06 02:44:22;;;;;;;17.60;12.50;;;;;;;11.39;78.34;99703.90;107967;1254;62041;-83
2023/04/06 02:46:50;;;;;;;16.70;11.80;;;;;;;11.42;78.30;99704.05;108039;1258;61267;-82
2023/04/06 02:49:21;;;;;;;14.50;11.70;;;;;;;11.42;78.19;99707.41;107869;1257;77224;-83
2023/04/06 02:51:52;;;;;;;17.30;12.90;;;;;;;11.41;78.12;99707.67;108059;1259;72998;-82
2023/04/06 02:54:30;;;;;;;16.30;12.20;;;;;;;11.41;77.98;99700.89;108104;1256;72370;-82
2023/04/06 02:56:59;;;;;;;16.10;12.10;;;;;;;11.40;77.96;99700.80;108090;1256;61296;-83
2023/04/06 02:59:34;;;;;;;16.80;11.50;;;;;;;11.42;77.91;99699.07;107845;1254;61167;-83
2023/04/06 03:02:13;;;;;;;18.40;13.10;;;;;;;11.42;77.80;99696.77;108014;1257;73981;-84
2023/04/06 03:04:42;;;;;;;17.40;12.00;;;;;;;11.44;77.72;99699.78;107947;1261;72343;-83
2023/04/06 03:07:18;;;;;;;16.70;12.20;;;;;;;11.44;77.57;99702.61;108091;1255;72742;-83
2023/04/06 03:09:54;;;;;;;18.40;12.20;;;;;;;11.45;77.37;99703.52;107933;1257;61971;-84
2023/04/06 03:12:23;;;;;;;16.90;12.20;;;;;;;11.42;77.31;99695.42;100445;1257;10002122;-81
2023/04/06 03:15:24;;;;;;;18.10;12.20;;;;;;;11.41;77.17;99699.55;108036;1257;70718;-83
2023/04/06 03:17:58;;;;;;;16.10;11.20;;;;;;;11.41;77.16;99701.33;108015;1255;72388;-84
2023/04/06 03:20:48;;;;;;;16.60;12.10;;;;;;;11.42;76.98;99698.36;107864;1255;61244;-83
2023/04/06 03:23:23;;;;;;;15.40;11.50;;;;;;;11.42;76.85;99699.06;107978;1257;60073;-83
2023/04/06 03:25:56;;;;;;;17.40;11.70;;;;;;;11.42;76.78;99699.66;108043;1255;74071;-83
2023/04/06 03:28:25;;;;;;;16.50;11.70;;;;;;;11.42;76.75;99704.90;108006;1257;73129;-82
2023/04/06 03:31:02;;;;;;;14.70;11.70;;;;;;;11.42;76.65;99709.65;107917;1257;72853;-83
2023/04/06 03:33:53;;;;;;;17.60;12.30;;;;;;;11.41;76.55;99708.43;107893;1257;61924;-82
2023/04/06 03:36:26;;;;;;;15.10;10.70;;;;;;;11.42;76.44;99714.35;107933;1259;61110;-83
2023/04/06 03:38:56;;;;;;;15.00;11.40;;;;;;;11.41;76.40;99714.85;107976;1257;75538;-83
2023/04/06 03:41:25;;;;;;;15.00;11.10;;;;;;;11.40;76.47;99713.42;107761;1257;73016;-81
2023/04/06 03:44:06;;;;;;;15.20;11.50;;;;;;;11.40;76.33;99714.95;108109;1256;71022;-83
2023/04/06 03:46:36;;;;;;;15.00;11.40;;;;;;;11.43;76.26;99714.35;108415;1254;60939;-84
2023/04/06 03:49:05;;;;;;;14.90;11.30;;;;;;;11.46;76.09;99721.32;108231;1254;59397;-83
2023/04/06 03:51:34;;;;;;;15.50;11.60;;;;;;;11.49;76.01;99722.74;108076;1255;74682;-82
2023/04/06 03:54:03;;;;;;;13.60;10.80;;;;;;;11.49;75.85;99723.48;107961;1254;72547;-85
2023/04/06 03:56:31;;;;;;;15.50;11.20;;;;;;;11.50;75.81;99728.98;107919;1257;72300;-83
2023/04/06 03:59:01;;;;;;;14.00;11.00;;;;;;;11.48;75.85;99728.78;107989;1254;62183;-85
2023/04/06 04:01:36;;;;;;;14.90;10.90;;;;;;;11.50;75.86;99736.09;107940;1257;61257;-84
2023/04/06 04:04:05;;;;;;;13.90;11.10;;;;;;;11.49;75.77;99736.16;107968;1258;74852;-84
2023/04/06 04:06:36;;;;;;;16.10;11.10;;;;;;;11.52;75.69;99735.18;108026;1254;74007;-82
2023/04/06 04:09:08;;;;;;;15.20;11.00;;;;;;;11.54;75.66;99739.80;108098;1256;70955;-84
2023/04/06 04:11:38;;;;;;;13.10;10.40;;;;;;;11.56;75.78;99734.51;108014;1257;61102;-84
2023/04/06 04:14:06;;;;;;;15.20;10.80;;;;;;;11.54;75.76;99734.94;107777;1254;61367;-83
2023/04/06 04:16:35;;;;;;;13.80;10.70;;;;;;;11.55;75.67;99742.30;108159;1257;73919;-84
2023/04/06 04:19:04;;;;;;;15.60;11.00;;;;;;;11.56;75.67;99744.39;108149;1254;73546;-83
2023/04/06 04:21:32;;;;;;;15.80;10.40;;;;;;;11.56;75.62;99737.01;108171;1254;72894;-84
2023/04/06 04:24:07;;;;;;;14.00;10.90;;;;;;;11.59;75.44;99736.23;107995;1254;61253;-85
2023/04/06 04:26:37;;;;;;;14.90;10.70;;;;;;;11.61;75.28;99735.55;108146;1254;60997;-83
2023/04/06 04:29:06;;;;;;;14.00;10.70;;;;;;;11.61;75.29;99736.63;108083;1256;73302;-83
2023/04/06 04:31:37;;;;;;;14.80;10.80;;;;;;;11.62;75.18;99737.00;108133;1257;73025;-84
2023/04/06 04:34:08;;;;;;;14.50;10.60;;;;;;;11.63;75.12;99739.66;108029;1255;73541;-85
2023/04/06 04:36:41;;;;;;;14.70;10.90;;;;;;;11.66;75.14;99744.02;108099;1256;61361;-84
2023/04/06 04:39:12;;;;;;;14.60;10.60;;;;;;;11.66;75.26;99743.69;108074;1256;61324;-84
2023/04/06 04:41:42;;;;;;;12.60;9.90;;;;;;;11.66;75.09;99747.80;108138;1254;74222;-84
2023/04/06 04:44:13;;;;;;;16.80;11.10;;;;;;;11.68;75.21;99749.12;108145;1255;73845;-86
2023/04/06 04:46:42;;;;;;;15.40;10.30;;;;;;;11.71;75.16;99752.46;108013;1256;73896;-83
2023/04/06 04:49:11;;;;;;;14.90;10.30;;;;;;;11.75;75.01;99751.41;108120;1256;61016;-84
2023/04/06 04:51:40;;;;;;;15.30;10.50;;;;;;;11.77;74.82;99751.49;108022;1254;61176;-85
2023/04/06 04:54:12;;;;;;;;;;;;;;;11.82;74.75;99753.70;108175;1255;73877;-84
2023/04/06 04:56:43;;;;;;;12.70;9.90;;;;;;;11.87;74.52;99750.98;108150;1257;72368;-84
2023/04/06 04:59:42;;;;;;;13.70;9.90;;;;;;;11.90;74.51;99751.01;107942;1257;72878;-85
2023/04/06 05:02:17;;;;;;;16.10;10.80;;;;;;;11.94;74.43;99753.10;108013;1255;61446;-87
2023/04/06 05:04:53;;;;;;;12.40;9.50;;;;;;;11.97;74.21;99752.11;108172;1254;61176;-83
2023/04/06 05:07:26;;;;;;;15.00;10.40;;;;;;;12.01;74.17;99752.42;108195;1254;75573;-83
2023/04/06 05:10:04;;;;;;;13.30;10.20;;;;;;;12.03;74.01;99754.07;108119;1256;71844;-84
2023/04/06 05:12:40;;;;;;;12.40;9.50;;;;;;;12.07;74.02;99758.25;108097;1254;73030;-84
2023/04/06 05:15:10;;;;;;;12.90;10.10;;;;;;;12.11;73.81;99752.84;108188;1255;61250;-83
2023/04/06 05:17:40;;;;;;;15.40;10.40;;;;;;;12.11;73.49;99748.94;108191;1254;61134;-84
2023/04/06 05:20:11;;;;;;;14.70;10.10;;;;;;;12.11;73.26;99747.02;108160;1257;74181;-84
2023/04/06 05:22:45;;;;;;;12.60;9.40;;;;;;;12.12;73.21;99750.05;108126;1254;73664;-86
2023/04/06 05:25:15;;;;;;;13.90;10.00;;;;;;;12.10;73.07;99747.33;108140;1258;72674;-83
2023/04/06 05:27:44;;;;;;;12.90;9.50;;;;;;;12.12;73.04;99752.63;108205;1255;62192;-86
2023/04/06 05:30:28;;;;;;;13.10;9.20;;;;;;;12.16;72.97;99751.14;108173;1254;61112;-85
2023/04/06 05:32:58;;;;;;;12.30;9.40;;;;;;;12.19;72.91;99754.46;107869;1254;73919;-85
2023/04/06 05:35:29;;;;;;;13.60;9.20;;;;;;;12.19;72.88;99750.02;108038;1262;71583;-85
2023/04/06 05:38:00;;;;;;;12.20;8.90;;;;;;;12.23;72.74;99754.26;108012;1256;72336;-83
2023/04/06 05:40:29;;;;;;;13.60;9.40;;;;;;;12.24;72.67;99755.05;108060;1254;61915;-82
2023/04/06 05:42:57;;;;;;;11.40;9.00;;;;;;;12.24;72.71;99758.21;108037;1261;61119;-84
2023/04/06 05:45:26;;;;;;;12.60;9.10;;;;;;;12.25;72.58;99759.49;108057;1256;72848;-83
2023/04/06 05:47:55;;;;;;;14.50;9.60;;;;;;;12.27;72.61;99757.36;108155;1256;72446;-85
2023/04/06 05:50:28;;;;;;;13.70;9.30;;;;;;;12.30;72.56;99758.65;108175;1255;74379;-83
2023/04/06 05:52:57;;;;;;;12.90;9.20;;;;;;;12.34;72.36;99761.02;108135;1257;61153;-85
2023/04/06 05:55:29;;;;;;;13.50;9.60;;;;;;;12.38;72.04;99759.84;108173;1257;61136;-84
2023/04/06 05:58:09;;;;;;;11.10;8.50;;;;;;;12.42;72.00;99758.39;108192;1258;75965;-84
2023/04/06 06:00:45;;;;;;;11.20;9.00;;;;;;;12.49;71.90;99755.25;108159;1254;73976;-83
2023/04/06 06:03:27;;;;;;;12.00;8.90;;;;;;;12.56;71.85;99752.94;108062;1256;74270;-84
2023/04/06 06:06:04;;;;;;;13.30;9.30;;;;;;;12.67;71.84;99754.23;108194;1256;61154;-83
2023/04/06 06:08:53;;;;;;;12.70;8.90;;;;;;;12.84;71.68;99754.31;108181;1254;61212;-85
2023/04/06 06:11:24;;;;;;;15.00;9.40;;;;;;;13.00;71.34;99752.20;108151;1254;75316;-84
2023/04/06 06:13:53;;;;;;;17.80;9.50;;;;;;;13.13;71.00;99756.59;108247;1254;73727;-85
2023/04/06 06:16:21;;;;;;;13.40;8.70;;;;;;;13.26;70.39;99750.61;108060;1261;71695;-84
2023/04/06 06:18:50;;;;;;;13.60;8.50;;;;;;;13.34;69.92;99752.63;108208;1254;62845;-85
2023/04/06 06:21:19;;;;;;;11.10;8.20;;;;;;;13.47;69.64;99754.13;108275;1254;61258;-85
2023/04/06 06:23:53;;;;;;;12.90;8.50;;;;;;;13.58;69.44;99754.59;108083;1255;74925;-85
2023/04/06 06:26:24;;;;;;;10.70;7.50;;;;;;;13.62;68.72;99751.92;107880;1254;73906;-86
2023/04/06 06:28:52;;;;;;;10.90;7.50;;;;;;;13.64;68.18;99758.16;108258;1255;72700;-83
2023/04/06 06:31:24;;;;;;;11.80;7.90;;;;;;;13.65;67.89;99758.73;108245;1257;60564;-83
2023/04/06 06:33:56;;;;;;;11.00;7.70;;;;;;;13.67;67.89;99761.58;108163;1256;59557;-83
2023/04/06 06:36:35;;;;;;;12.20;7.50;;;;;;;13.72;67.67;99760.70;108151;1257;73788;-83
2023/04/06 06:39:06;;;;;;;10.80;7.60;;;;;;;13.77;67.53;99755.16;108008;1255;73778;-84
2023/04/06 06:41:36;;;;;;;14.00;7.50;;;;;;;13.83;67.53;99759.48;108032;1257;71019;-86
2023/04/06 06:44:05;;;;;;;12.10;7.40;;;;;;;13.92;67.17;99757.95;108077;1256;61736;-83
2023/04/06 06:46:41;;;;;;;14.20;7.70;;;;;;;14.02;66.88;99764.73;108142;1257;61120;-83
2023/04/06 06:49:12;;;;;;;11.20;7.50;;;;;;;14.11;66.67;99758.39;108205;1257;74790;-85
2023/04/06 06:51:40;;;;;;;11.10;7.90;;;;;;;14.18;66.42;99761.51;108205;1254;72773;-85
2023/04/06 06:54:09;;;;;;;12.00;8.30;;;;;;;14.27;66.14;99760.68;108090;1255;73396;-85
2023/04/06 06:56:39;;;;;;;11.50;7.60;;;;;;;14.28;65.54;99753.89;107996;1254;61361;-84
2023/04/06 06:59:07;;;;;;;12.50;7.70;;;;;;;14.26;65.31;99753.71;108187;1258;61501;-86
2023/04/06 07:01:36;;;;;;;13.70;7.50;;;;;;;14.27;65.33;99752.77;108202;1254;75660;-82
2023/04/06 07:04:05;;;;;;;13.50;7.20;;;;;;;14.27;65.37;99757.89;108074;1254;73653;-82
2023/04/06 07:06:39;;;;;;;14.20;8.20;;;;;;;14.28;65.38;99757.38;108189;1254;76501;-82
2023/04/06 07:09:09;;;;;;;11.80;7.40;;;;;;;14.30;65.28;99758.41;108196;1259;61263;-85
2023/04/06 07:11:37;;;;;;;10.20;6.60;;;;;;;14.29;65.14;99755.17;108160;1255;61124;-84
2023/04/06 07:14:12;;;;;;;10.00;6.70;;;;;;;14.32;65.26;99761.45;108212;1254;75633;-83
2023/04/06 07:16:41;;;;;;;10.80;7.10;;;;;;;14.32;65.15;99760.80;108040;1254;73733;-82
2023/04/06 07:19:10;;;;;;;12.80;7.10;;;;;;;14.35;65.02;99766.13;108094;1257;73743;-83
2023/04/06 07:21:44;;;;;;;8.40;6.20;;;;;;;14.38;65.15;99768.68;108160;1254;62881;-84
2023/04/06 07:24:13;;;;;;;10.00;7.00;;;;;;;14.40;65.02;99769.48;108169;1256;61668;-84
2023/04/06 07:26:42;;;;;;;11.70;7.40;;;;;;;14.42;64.87;99767.79;108215;1254;75202;-85
2023/04/06 07:29:12;;;;;;;10.10;7.00;;;;;;;14.46;64.75;99770.59;108226;1259;72471;-82
2023/04/06 07:31:41;;;;;;;11.80;6.90;;;;;;;14.46;64.52;99769.91;108044;1255;73123;-83
2023/04/06 07:34:11;;;;;;;11.00;6.60;;;;;;;14.49;64.48;99768.17;108158;1254;61598;-84
2023/04/06 07:36:43;;;;;;;11.00;7.00;;;;;;;14.48;64.33;99769.22;108028;1259;61071;-82
2023/04/06 07:39:12;;;;;;;12.30;6.80;;;;;;;14.42;64.36;99774.39;108088;1260;75640;-83
2023/04/06 07:41:41;;;;;;;12.60;7.30;;;;;;;14.39;64.48;99775.59;108205;1257;71893;-82
2023/04/06 07:44:10;;;;;;;12.90;7.10;;;;;;;14.38;64.47;99781.45;108044;1257;72142;-81
2023/04/06 07:46:39;;;;;;;12.50;7.10;;;;;;;14.40;64.50;99778.54;108020;1255;62873;-84
2023/04/06 07:49:09;;;;;;;11.40;7.20;;;;;;;14.38;64.65;99782.75;108090;1255;61214;-83
2023/04/06 07:51:39;;;;;;;10.90;6.80;;;;;;;14.37;64.88;99785.84;108293;1260;74850;-81
2023/04/06 07:54:09;;;;;;;10.90;6.80;;;;;;;14.34;65.03;99791.59;108337;1254;72986;-81
2023/04/06 07:56:40;;;;;;;9.00;6.40;;;;;;;14.35;65.16;99795.93;108311;1254;72733;-83
2023/04/06 07:59:08;;;;;;;10.80;6.50;;;;;;;14.38;65.31;99793.77;108052;1255;61222;-83
2023/04/06 08:01:37;;;;;;;9.00;6.50;;;;;;;14.41;65.26;99796.34;108033;1254;61394;-83
2023/04/06 08:04:06;;;;;;;8.60;6.50;;;;;;;14.45;65.22;99796.04;108034;1257;76012;-84
2023/04/06 08:06:36;;;;;;;9.40;6.60;;;;;;;14.51;65.15;99798.98;108108;1259;74530;-83
2023/04/06 08:09:07;;;;;;;11.80;6.60;;;;;;;14.57;65.21;99800.55;108056;1257;72463;-83
2023/04/06 08:11:36;;;;;;;9.90;6.30;;;;;;;14.62;65.07;99803.27;108052;1256;62903;-85
2023/04/06 08:14:04;;;;;;;11.90;6.30;;;;;;;14.64;64.78;99801.53;108068;1256;61234;-83
2023/04/06 08:16:37;;;;;;;13.10;7.30;;;;;;;14.63;64.77;99799.50;108055;1258;74570;-85
2023/04/06 08:19:09;;;;;;;11.60;6.70;;;;;;;14.61;64.71;99801.44;108107;1254;73733;-82
2023/04/06 08:21:37;;;;;;;10.10;6.50;;;;;;;14.57;64.79;99800.13;108069;1257;74075;-84
2023/04/06 08:24:06;;;;;;;10.00;6.30;;;;;;;14.54;64.98;99801.03;108084;1254;61168;-84
2023/04/06 08:26:38;;;;;;;10.90;6.40;;;;;;;14.54;65.14;99800.70;107967;1257;61545;-84
2023/04/06 08:29:09;;;;;;;13.60;7.20;;;;;;;14.57;65.16;99801.77;108117;1257;76087;-82
2023/04/06 08:31:37;;;;;;;8.90;6.10;;;;;;;14.63;65.23;99801.27;108031;1259;72424;-84
2023/04/06 08:34:11;;;;;;;8.70;6.20;;;;;;;14.68;65.31;99806.21;108084;1260;72589;-83
2023/04/06 08:36:46;;;;;;;11.90;6.60;;;;;;;14.73;65.26;99802.40;108008;1259;61962;-84
2023/04/06 08:39:15;;;;;;;9.10;6.60;;;;;;;14.78;65.08;99799.88;108091;1256;61460;-85
2023/04/06 08:41:43;;;;;;;12.20;6.70;;;;;;;14.81;64.95;99803.09;108007;1259;72717;-82
2023/04/06 08:44:21;;;;;;;9.30;6.40;;;;;;;14.80;64.80;99802.52;108083;1257;73555;-83
2023/04/06 08:46:51;;;;;;;9.30;6.20;;;;;;;14.77;64.81;99804.94;107959;1260;72670;-84
2023/04/06 08:49:19;;;;;;;12.00;6.60;;;;;;;14.72;64.99;99808.27;108163;1259;61962;-83
2023/04/06 08:51:48;;;;;;;10.70;7.20;;;;;;;14.65;65.22;99807.05;108173;1254;61153;-84
2023/04/06 08:54:17;;;;;;;11.30;7.40;;;;;;;14.58;65.46;99808.04;107995;1254;75816;-83
2023/04/06 08:56:45;;;;;;;11.10;7.30;;;;;;;14.53;65.96;99807.30;108134;1254;74028;-84
2023/04/06 08:59:13;;;;;;;11.50;7.10;;;;;;;14.47;66.46;99813.95;108004;1254;72268;-82
2023/04/06 09:01:42;;;;;;;11.30;8.20;;;;;;;14.44;66.98;99812.62;107916;1260;62036;-82
2023/04/06 09:04:13;;;;;;;13.50;8.30;;;;;;;14.41;67.53;99818.05;108043;1254;61241;-82
2023/04/06 09:06:43;;;;;;;11.70;8.20;;;;;;;14.41;67.99;99813.86;108116;1258;74529;-84
2023/04/06 09:09:12;;;;;;;10.60;7.70;;;;;;;14.44;68.29;99817.30;108135;1259;72748;-85
2023/04/06 09:11:43;;;;;;;11.50;8.10;;;;;;;14.48;68.33;99815.70;108112;1258;72574;-84
2023/04/06 09:14:12;;;;;;;13.50;8.50;;;;;;;14.52;68.35;99821.39;108343;1254;63231;-83
2023/04/06 09:16:44;;;;;;;12.20;7.70;;;;;;;14.55;68.36;99818.92;108594;1260;59771;-83
2023/04/06 09:19:13;;;;;;;13.50;8.30;;;;;;;14.59;68.32;99823.67;108218;1260;74776;-85
2023/04/06 09:21:42;;;;;;;11.40;8.10;;;;;;;14.61;68.33;99830.02;108031;1256;70805;-85
2023/04/06 09:24:10;;;;;;;11.40;8.40;;;;;;;14.59;68.40;99825.88;108001;1260;73182;-84
2023/04/06 09:26:48;;;;;;;12.70;8.50;;;;;;;14.54;68.69;99826.95;108053;1254;62697;-83
2023/04/06 09:29:24;;;;;;;13.10;8.50;;;;;;;14.52;69.13;99832.42;107827;1254;59906;-82
2023/04/06 09:32:10;;;;;;;14.50;9.40;;;;;;;14.50;69.79;99835.16;108161;1260;73631;-82
2023/04/06 09:34:39;;;;;;;12.80;9.80;;;;;;;14.43;70.39;99839.94;107987;1254;73356;-84
2023/04/06 09:37:17;;;;;;;12.70;10.40;;;;;;;14.35;70.91;99847.29;107979;1255;72561;-84
2023/04/06 09:39:47;;;;;;;15.20;9.90;;;;;;;14.22;71.62;99849.95;108081;1254;61244;-83
2023/04/06 09:42:25;;;;;;;13.90;10.30;;;;;;;14.18;72.01;99853.27;108080;1260;61266;-83
2023/04/06 09:44:54;;;;;;;13.60;9.90;;;;;;;14.12;72.60;99854.83;107946;1257;75880;-84
2023/04/06 09:47:24;;;;;;;12.60;9.20;;;;;;;14.10;72.80;99855.18;107996;1254;73786;-81
2023/04/06 09:49:57;;;;;;;11.20;9.30;;;;;;;14.09;73.19;99855.52;107779;1257;74038;-83
2023/04/06 09:52:27;;;;;;;13.10;10.20;;;;;;;14.05;73.53;99859.80;108163;1259;62636;-83
2023/04/06 09:54:57;;;;;;;11.30;8.50;;;;;;;13.99;73.83;99856.46;108163;1254;61166;-84
2023/04/06 09:57:31;;;;;;;13.20;9.20;;;;;;;13.96;73.91;99866.20;108053;1254;75364;-83
2023/04/06 10:00:10;;;;;;;15.10;9.90;;;;;;;13.94;74.23;99864.86;108183;1260;71799;-83
2023/04/06 10:03:20;;;;;;;13.00;9.80;;;;;;;13.91;74.68;99871.48;108166;1254;73763;-83
2023/04/06 10:06:11;;;;;;;12.80;9.70;;;;;;;13.87;75.03;99874.77;108190;1255;62996;-84
2023/04/06 10:08:57;;;;;;;11.70;9.60;;;;;;;13.83;75.36;99878.74;107846;1254;61258;-83
2023/04/06 10:11:37;;;;;;;12.80;9.30;;;;;;;13.79;75.60;99877.96;108331;1255;74746;-83
2023/04/06 10:14:26;;;;;;;11.70;9.00;;;;;;;13.77;75.88;99879.06;108085;1260;72983;-85
2023/04/06 10:16:55;;;;;;;11.90;9.30;;;;;;;13.78;76.06;99881.14;104145;1258;5396737;-84
2023/04/06 10:19:26;;;;;;;11.10;8.70;;;;;;;13.81;76.34;99886.14;108096;1256;61320;-85
2023/04/06 10:21:55;;;;;;;12.30;9.20;;;;;;;13.84;76.59;99882.77;108088;1260;61118;-85
2023/04/06 10:24:25;;;;;;;12.40;9.20;;;;;;;13.87;76.74;99884.38;108218;1257;73737;-85
2023/04/06 10:27:00;;;;;;;11.60;9.00;;;;;;;13.88;76.79;99885.06;108078;1260;73014;-85
2023/04/06 10:29:51;;;;;;;12.30;10.30;;;;;;;13.87;76.67;99884.07;108120;1256;71771;-84
2023/04/06 10:32:20;;;;;;;12.90;8.70;;;;;;;13.87;76.62;99888.20;107933;1258;63382;-85
2023/04/06 10:34:48;;;;;;;12.00;9.10;;;;;;;13.92;76.72;99891.22;108170;1257;61274;-85
2023/04/06 10:37:20;;;;;;;13.30;10.40;;;;;;;14.01;76.91;99887.40;108234;1257;74420;-83
2023/04/06 10:39:54;;;;;;;16.30;11.20;;;;;;;14.13;76.86;99890.16;108320;1258;72473;-84
2023/04/06 10:42:35;;;;;;;14.10;11.00;;;;;;;14.25;76.65;99894.00;108073;1257;71035;-82
2023/04/06 10:45:07;;;;;;;15.20;10.90;;;;;;;14.32;76.35;99895.39;108068;1256;61726;-84
2023/04/06 10:47:40;;;;;;;13.70;11.00;;;;;;;14.40;76.13;99894.98;108061;1258;61366;-88
2023/04/06 10:50:11;;;;;;;13.40;11.30;;;;;;;14.46;75.89;99899.69;108060;1259;75662;-83
2023/04/06 10:52:40;;;;;;;15.10;11.60;;;;;;;14.51;75.48;99898.20;108169;1257;73793;-85
2023/04/06 10:55:11;;;;;;;14.90;11.40;;;;;;;14.57;75.34;99901.53;108056;1259;72407;-83
2023/04/06 10:57:40;;;;;;;15.10;11.90;;;;;;;14.66;75.15;99904.80;107882;1258;62713;-84
2023/04/06 11:00:11;;;;;;;14.50;11.40;;;;;;;14.72;74.81;99905.32;108090;1257;61259;-84
2023/04/06 11:02:41;;;;;;;16.50;12.20;;;;;;;14.76;74.35;99906.20;108232;1254;74360;-84
2023/04/06 11:05:11;;;;;;;15.50;12.00;;;;;;;14.76;73.95;99906.73;108138;1254;73671;-83
2023/04/06 11:07:44;;;;;;;16.40;12.80;;;;;;;14.76;73.67;99908.56;108127;1254;73727;-84
2023/04/06 11:10:21;;;;;;;14.70;11.80;;;;;;;14.76;73.63;99908.88;108089;1257;62695;-83
2023/04/06 11:12:55;;;;;;;15.10;11.60;;;;;;;14.80;73.56;99911.73;108131;1254;61259;-83
2023/04/06 11:15:25;;;;;;;14.60;11.60;;;;;;;14.77;73.52;99915.97;108111;1254;73710;-84
2023/04/06 11:17:53;;;;;;;15.90;12.40;;;;;;;14.76;73.60;99915.13;108019;1254;71554;-84
2023/04/06 11:20:22;;;;;;;16.10;12.00;;;;;;;14.76;73.79;99918.18;108193;1254;73562;-82
2023/04/06 11:22:52;;;;;;;16.40;12.70;;;;;;;14.80;74.02;99918.91;107857;1254;62991;-83
2023/04/06 11:25:20;;;;;;;19.30;14.30;;;;;;;14.87;74.20;99919.96;108152;1254;61292;-86
2023/04/06 11:27:50;;;;;;;17.10;12.90;;;;;;;14.92;74.04;99922.06;108161;1254;75564;-83
2023/04/06 11:30:19;;;;;;;18.20;13.40;;;;;;;14.96;73.74;99922.73;108139;1254;72850;-83
2023/04/06 11:32:48;;;;;;;16.20;13.10;;;;;;;15.01;73.71;99921.53;108000;1260;73958;-83
2023/04/06 11:35:23;;;;;;;20.10;15.50;;;;;;;15.08;73.63;99925.39;108184;1254;61269;-84
2023/04/06 11:37:51;;;;;;;22.70;16.50;;;;;;;15.15;73.51;99926.55;108220;1254;61398;-88